createdAt,value
2022-08-22T00:00:15.358Z,100079.87
2022-08-22T00:03:00.472Z,100012.19
2022-08-22T00:03:17.634Z,100082.36
2022-08-22T00:06:14.878Z,100095.60
2022-08-22T00:09:27.253Z,100098.52
2022-08-22T00:12:18.690Z,100099.41
2022-08-22T00:15:03.223Z,100092.08
2022-08-22T00:17:54.112Z,100088.00
2022-08-22T00:20:44.035Z,100083.39
2022-08-22T00:23:31.395Z,100082.89
2022-08-22T00:26:37.343Z,100079.61
2022-08-22T00:30:01.221Z,100076.53
2022-08-22T00:32:56.924Z,100075.41
2022-08-22T00:35:58.689Z,100076.14
2022-08-22T00:38:39.166Z,100077.86
2022-08-22T00:41:44.897Z,100077.70
2022-08-22T00:44:54.756Z,100082.65
2022-08-22T00:47:40.770Z,100083.55
2022-08-22T00:50:55.395Z,100083.27
2022-08-22T00:54:17.994Z,100074.46
2022-08-22T00:57:32.187Z,100076.31
2022-08-22T01:00:24.828Z,100078.05
2022-08-22T01:03:34.720Z,100077.09
2022-08-22T01:06:21.224Z,100078.92
2022-08-22T01:09:12.893Z,100074.95
2022-08-22T01:12:08.160Z,100074.39
2022-08-22T01:14:59.353Z,100074.33
2022-08-22T01:17:35.702Z,100073.92
2022-08-22T01:20:49.226Z,100070.87
2022-08-22T01:24:02.726Z,100077.41
2022-08-22T01:26:57.693Z,100074.98
2022-08-22T01:29:54.466Z,100074.27
2022-08-22T01:33:14.528Z,100079.20
2022-08-22T01:36:21.629Z,100078.91
2022-08-22T01:39:37.415Z,100078.98
2022-08-22T01:42:35.774Z,100079.70
2022-08-22T01:45:37.637Z,100080.33
2022-08-22T01:48:27.296Z,100076.96
2022-08-22T01:51:21.358Z,100079.21
2022-08-22T01:54:08.772Z,100075.64
2022-08-22T01:56:48.446Z,100071.50
2022-08-22T01:59:46.236Z,100065.39
2022-08-22T02:03:06.448Z,100071.02
2022-08-22T02:06:02.956Z,100066.33
2022-08-22T02:09:38.245Z,100060.32
2022-08-22T02:12:21.652Z,100063.65
2022-08-22T02:15:07.505Z,100070.33
2022-08-22T02:18:01.146Z,100067.39
2022-08-22T02:20:57.944Z,100066.62
2022-08-22T02:23:32.445Z,100062.20
2022-08-22T02:26:51.440Z,100056.91
2022-08-22T02:29:49.058Z,100054.48
2022-08-22T02:32:49.928Z,100047.63
2022-08-22T02:35:48.010Z,100044.55
2022-08-22T02:38:59.534Z,100049.93
2022-08-22T02:41:40.097Z,100049.13
2022-08-22T02:44:24.939Z,100049.40
2022-08-22T02:47:13.570Z,100048.80
2022-08-22T02:50:19.847Z,100043.78
2022-08-22T02:53:04.125Z,100045.36
2022-08-22T02:55:51.301Z,100043.47
2022-08-22T02:58:45.603Z,100047.20
2022-08-22T03:01:34.481Z,100050.63
2022-08-22T03:04:38.384Z,100058.57
2022-08-22T03:07:25.938Z,100073.72
2022-08-22T03:10:20.636Z,100078.64
2022-08-22T03:13:02.390Z,100076.75
2022-08-22T03:15:54.850Z,100078.45
2022-08-22T03:18:49.782Z,100079.65
2022-08-22T03:21:31.673Z,100079.70
2022-08-22T03:24:20.404Z,100074.89
2022-08-22T03:27:44.659Z,100078.83
2022-08-22T03:30:36.125Z,100082.07
2022-08-22T03:33:27.704Z,100085.83
2022-08-22T03:36:31.402Z,100085.95
2022-08-22T03:39:20.092Z,100084.50
2022-08-22T03:42:04.772Z,100083.41
2022-08-22T03:45:03.894Z,100087.36
2022-08-22T03:48:18.431Z,100084.35
2022-08-22T03:51:35.569Z,100083.86
2022-08-22T03:54:48.164Z,100081.82
2022-08-22T03:57:48.112Z,100089.04
2022-08-22T04:00:26.805Z,100090.73
2022-08-22T04:03:39.740Z,100093.77
2022-08-22T04:06:53.748Z,100094.55
2022-08-22T04:09:52.240Z,100098.95
2022-08-22T04:12:48.833Z,100097.83
2022-08-22T04:15:30.525Z,100096.98
2022-08-22T04:18:33.506Z,100101.23
2022-08-22T04:21:28.202Z,100105.46
2022-08-22T04:24:33.298Z,100109.36
2022-08-22T04:27:16.701Z,100109.62
2022-08-22T04:30:16.385Z,100110.57
2022-08-22T04:33:01.970Z,100111.94
2022-08-22T04:35:59.331Z,100108.67
2022-08-22T04:38:51.864Z,100108.80
2022-08-22T04:42:16.266Z,100112.27
2022-08-22T04:45:06.237Z,100116.39
2022-08-22T04:48:09.253Z,100112.92
2022-08-22T04:51:00.733Z,100113.33
2022-08-22T04:53:50.726Z,100113.58
2022-08-22T04:56:39.519Z,100110.66
2022-08-22T04:59:21.139Z,100110.86
2022-08-22T05:02:08.664Z,100118.80
2022-08-22T05:04:54.323Z,100121.66
2022-08-22T05:07:38.014Z,100122.77
2022-08-22T05:10:30.864Z,100121.89
2022-08-22T05:13:19.984Z,100127.05
2022-08-22T05:16:02.271Z,100129.83
2022-08-22T05:18:45.932Z,100134.34
2022-08-22T05:21:30.742Z,100140.88
2022-08-22T05:24:14.238Z,100140.20
2022-08-22T05:26:57.115Z,100143.30
2022-08-22T05:29:35.644Z,100142.92
2022-08-22T05:32:25.407Z,100143.63
2022-08-22T05:35:06.048Z,100145.75
2022-08-22T05:37:51.035Z,100149.05
2022-08-22T05:40:31.487Z,100146.36
2022-08-22T05:43:17.303Z,100145.83
2022-08-22T05:45:55.936Z,100147.16
2022-08-22T05:49:02.711Z,100146.33
2022-08-22T05:51:53.314Z,100156.28
2022-08-22T05:54:34.974Z,100161.00
2022-08-22T05:57:21.630Z,100158.74
2022-08-22T06:00:15.109Z,100165.59
2022-08-22T06:03:22.196Z,100166.77
2022-08-22T06:06:06.656Z,100167.88
2022-08-22T06:09:07.329Z,100170.53
2022-08-22T06:12:15.048Z,100168.85
2022-08-22T06:15:25.729Z,100168.61
2022-08-22T06:18:12.437Z,100172.29
2022-08-22T06:21:05.984Z,100168.23
2022-08-22T06:23:51.562Z,100168.23
2022-08-22T06:26:40.156Z,100169.02
2022-08-22T06:29:26.053Z,100168.19
2022-08-22T06:32:03.361Z,100177.11
2022-08-22T06:34:48.213Z,100175.63
2022-08-22T06:37:36.579Z,100180.95
2022-08-22T06:40:17.314Z,100182.77
2022-08-22T06:42:52.495Z,100187.63
2022-08-22T06:45:38.380Z,100188.96
2022-08-22T06:48:21.965Z,100195.65
2022-08-22T06:51:05.557Z,100196.76
2022-08-22T06:53:55.080Z,100199.06
2022-08-22T06:56:44.766Z,100197.46
2022-08-22T06:59:26.269Z,100197.23
2022-08-22T07:02:14.033Z,100202.63
2022-08-22T07:04:55.501Z,100203.23
2022-08-22T07:07:31.999Z,100201.23
2022-08-22T07:10:13.566Z,100203.17
2022-08-22T07:12:56.426Z,100195.52
2022-08-22T07:15:39.790Z,100191.37
2022-08-22T07:18:23.789Z,100195.73
2022-08-22T07:21:06.164Z,100194.25
2022-08-22T07:23:50.723Z,100196.04
2022-08-22T07:26:42.949Z,100196.00
2022-08-22T07:29:36.989Z,100196.44
2022-08-22T07:32:19.182Z,100199.72
2022-08-22T07:35:11.841Z,100203.90
2022-08-22T07:38:19.471Z,100199.06
2022-08-22T07:41:05.179Z,100201.98
2022-08-22T07:43:49.473Z,100199.47
2022-08-22T07:46:41.086Z,100197.55
2022-08-22T07:49:25.477Z,100197.66
2022-08-22T07:52:11.296Z,100198.39
2022-08-22T07:55:09.600Z,100195.45
2022-08-22T07:58:06.593Z,100198.38
2022-08-22T08:00:48.882Z,100196.61
2022-08-22T08:03:32.132Z,100191.61
2022-08-22T08:06:10.609Z,100187.95
2022-08-22T08:08:48.302Z,100186.69
2022-08-22T08:11:26.534Z,100184.80
2022-08-22T08:14:10.080Z,100183.13
2022-08-22T08:17:16.930Z,100173.58
2022-08-22T08:19:54.976Z,100175.27
2022-08-22T08:22:32.691Z,100175.06
2022-08-22T08:25:13.080Z,100172.89
2022-08-22T08:28:11.467Z,100171.14
2022-08-22T08:31:01.820Z,100167.80
2022-08-22T08:33:37.539Z,100159.84
2022-08-22T08:36:56.831Z,100158.97
2022-08-22T08:39:41.374Z,100154.09
2022-08-22T08:42:58.517Z,100156.48
2022-08-22T08:45:56.401Z,100156.24
2022-08-22T08:49:06.678Z,100157.11
2022-08-22T08:51:51.623Z,100156.80
2022-08-22T08:54:56.022Z,100161.17
2022-08-22T08:57:52.380Z,100155.50
2022-08-22T09:00:48.902Z,100156.22
2022-08-22T09:04:01.735Z,100154.79
2022-08-22T09:06:56.592Z,100149.50
2022-08-22T09:09:57.507Z,100154.20
2022-08-22T09:13:26.088Z,100158.00
2022-08-22T09:19:07.039Z,100159.87
2022-08-22T09:22:21.428Z,100153.86
2022-08-22T09:25:36.808Z,100156.27
2022-08-22T09:28:55.477Z,100154.46
2022-08-22T09:32:07.166Z,100148.36
2022-08-22T09:34:53.263Z,100148.92
2022-08-22T09:37:37.729Z,100145.98
2022-08-22T09:40:16.361Z,100156.55
2022-08-22T09:40:33.368Z,100142.49
2022-08-22T09:43:24.270Z,100140.29
2022-08-22T09:46:18.672Z,100135.86
2022-08-22T09:49:05.531Z,100133.05
2022-08-22T09:52:33.909Z,100134.13
2022-08-22T09:55:35.530Z,100137.60
2022-08-22T09:58:41.694Z,100136.98
2022-08-22T10:01:47.878Z,100138.80
2022-08-22T10:04:32.187Z,100132.88
2022-08-22T10:07:23.099Z,100129.29
2022-08-22T10:10:21.452Z,100129.27
2022-08-22T10:13:14.862Z,100129.39
2022-08-22T10:16:19.087Z,100130.98
2022-08-22T10:19:05.371Z,100134.04
2022-08-22T10:21:45.719Z,100126.20
2022-08-22T10:25:08.371Z,100124.89
2022-08-22T10:28:21.261Z,100131.02
2022-08-22T10:31:27.450Z,100132.20
2022-08-22T10:34:28.700Z,100141.50
2022-08-22T10:37:50.365Z,100145.09
2022-08-22T10:40:31.673Z,100145.63
2022-08-22T10:43:48.041Z,100148.36
2022-08-22T10:46:38.307Z,100152.15
2022-08-22T10:49:22.588Z,100153.10
2022-08-22T10:52:15.773Z,100148.87
2022-08-22T10:55:22.683Z,100148.33
2022-08-22T10:58:10.776Z,100142.14
2022-08-22T11:01:37.035Z,100140.34
2022-08-22T11:04:33.975Z,100141.14
2022-08-22T11:07:29.644Z,100135.66
2022-08-22T11:10:11.999Z,100130.02
2022-08-22T11:13:16.438Z,100130.55
2022-08-22T11:16:20.213Z,100133.81
2022-08-22T11:19:15.851Z,100134.92
2022-08-22T11:22:03.649Z,100132.60
2022-08-22T11:25:08.942Z,100128.45
2022-08-22T11:28:05.495Z,100112.48
2022-08-22T11:31:14.618Z,100105.13
2022-08-22T11:34:13.718Z,100094.23
2022-08-22T11:36:57.272Z,100090.14
2022-08-22T11:39:42.444Z,100088.81
2022-08-22T11:42:59.095Z,100085.33
2022-08-22T11:45:47.992Z,100076.34
2022-08-22T11:48:48.709Z,100072.81
2022-08-22T11:52:00.437Z,100073.70
2022-08-22T11:54:48.068Z,100077.16
2022-08-22T11:57:39.078Z,100075.91
2022-08-22T12:00:31.724Z,100071.77
2022-08-22T12:03:39.839Z,100066.14
2022-08-22T12:06:47.236Z,100062.91
2022-08-22T12:09:47.696Z,100055.22
2022-08-22T12:12:26.696Z,100055.12
2022-08-22T12:15:13.980Z,100055.74
2022-08-22T12:18:10.902Z,100048.48
2022-08-22T12:21:18.873Z,100047.50
2022-08-22T12:24:21.446Z,100049.52
2022-08-22T12:27:11.706Z,100050.44
2022-08-22T12:30:21.223Z,100046.73
2022-08-22T12:33:26.870Z,100043.73
2022-08-22T12:36:18.015Z,100037.64
2022-08-22T12:39:28.924Z,100042.27
2022-08-22T12:42:13.303Z,100049.91
2022-08-22T12:45:08.103Z,100049.05
2022-08-22T12:48:24.895Z,100041.91
2022-08-22T12:51:18.321Z,100040.12
2022-08-22T12:54:21.616Z,100034.55
2022-08-22T12:56:54.163Z,100033.23
2022-08-22T12:59:36.213Z,100030.79
2022-08-22T13:02:23.638Z,100028.39
2022-08-22T13:05:27.584Z,100021.70
2022-08-22T13:08:12.998Z,100025.42
2022-08-22T13:10:57.049Z,100025.77
2022-08-22T13:13:38.927Z,100023.44
2022-08-22T13:16:20.856Z,100022.63
2022-08-22T13:19:07.868Z,100019.92
2022-08-22T13:21:55.061Z,100022.91
2022-08-22T13:24:40.983Z,100025.39
2022-08-22T13:27:40.621Z,100024.62
2022-08-22T13:30:37.588Z,100019.09
2022-08-22T13:33:41.498Z,100017.00
2022-08-22T13:36:24.129Z,100016.15
2022-08-22T13:39:19.711Z,100009.52
2022-08-22T13:42:04.439Z,100012.42
2022-08-22T13:44:55.978Z,100007.83
2022-08-22T13:47:34.551Z,100009.17
2022-08-22T13:50:26.736Z,100002.17
2022-08-22T13:53:37.369Z,100006.61
2022-08-22T13:56:22.424Z,100002.45
2022-08-22T13:59:03.740Z,99998.55
2022-08-22T14:01:56.734Z,100002.70
2022-08-22T14:04:36.690Z,100003.80
2022-08-22T14:07:13.021Z,100002.31
2022-08-22T14:10:14.987Z,100001.30
2022-08-22T14:12:58.981Z,100000.27
2022-08-22T14:15:44.907Z,100003.91
2022-08-22T14:18:45.685Z,100014.48
2022-08-22T14:21:33.498Z,100018.98
2022-08-22T14:24:27.027Z,100027.05
2022-08-22T14:27:17.656Z,100033.02
2022-08-22T14:30:00.230Z,100032.61
2022-08-22T14:32:53.498Z,100040.42
2022-08-22T14:35:52.675Z,100043.08
2022-08-22T14:38:33.574Z,100048.53
2022-08-22T14:41:19.779Z,100055.05
2022-08-22T14:43:59.064Z,100058.91
2022-08-22T14:46:48.995Z,100060.21
2022-08-22T14:49:30.902Z,100071.02
2022-08-22T14:52:19.619Z,100076.40
2022-08-22T14:55:15.836Z,100085.95
2022-08-22T14:57:58.687Z,100087.59
2022-08-22T15:00:41.983Z,100088.48
2022-08-22T15:03:42.720Z,100080.80
2022-08-22T15:06:38.198Z,100061.83
2022-08-22T15:09:36.965Z,100050.17
2022-08-22T15:12:28.470Z,100043.69
2022-08-22T15:15:09.385Z,100034.73
2022-08-22T15:17:54.590Z,100028.55
2022-08-22T15:20:45.253Z,100035.77
2022-08-22T15:23:29.943Z,100053.11
2022-08-22T15:26:13.312Z,100074.98
2022-08-22T15:29:00.218Z,100097.23
2022-08-22T15:31:39.702Z,100100.42
2022-08-22T15:34:33.608Z,100099.59
2022-08-22T15:37:21.078Z,100113.27
2022-08-22T15:40:12.509Z,100129.63
2022-08-22T15:42:55.723Z,100144.19
2022-08-22T15:45:39.031Z,100147.00
2022-08-22T15:48:34.613Z,100154.70
2022-08-22T15:51:17.337Z,100159.10
2022-08-22T15:54:16.591Z,100158.56
2022-08-22T15:57:21.520Z,100155.72
2022-08-22T16:00:12.012Z,100157.26
2022-08-22T16:03:12.054Z,100152.54
2022-08-22T16:06:07.566Z,100147.54
2022-08-22T16:08:55.502Z,100140.70
2022-08-22T16:11:37.081Z,100144.70
2022-08-22T16:14:21.545Z,100150.17
2022-08-22T16:17:10.564Z,100152.34
2022-08-22T16:19:47.865Z,100160.38
2022-08-22T16:22:27.970Z,100160.11
2022-08-22T16:25:07.103Z,100154.08
2022-08-22T16:27:59.052Z,100154.05
2022-08-22T16:30:40.343Z,100157.66
2022-08-22T16:33:33.310Z,100157.70
2022-08-22T16:36:25.464Z,100141.04
2022-08-22T16:39:01.303Z,100132.27
2022-08-22T16:41:43.926Z,100132.21
2022-08-22T16:44:25.681Z,100135.62
2022-08-22T16:47:14.610Z,100141.98
2022-08-22T16:49:59.345Z,100148.95
2022-08-22T16:52:33.729Z,100155.46
2022-08-22T16:55:36.609Z,100160.58
2022-08-22T16:58:56.920Z,100161.35
2022-08-22T17:02:00.997Z,100164.41
2022-08-22T17:04:54.570Z,100174.21
2022-08-22T17:07:44.431Z,100178.84
2022-08-22T17:10:17.968Z,100184.88
2022-08-22T17:13:09.928Z,100190.17
2022-08-22T17:16:01.529Z,100193.78
2022-08-22T17:18:55.890Z,100201.69
2022-08-22T17:21:34.126Z,100211.73
2022-08-22T17:24:32.090Z,100225.37
2022-08-22T17:27:34.710Z,100225.21
2022-08-22T17:30:34.912Z,100223.52
2022-08-22T17:33:31.582Z,100221.12
2022-08-22T17:36:50.441Z,100222.36
2022-08-22T17:40:19.820Z,100218.33
2022-08-22T17:43:42.992Z,100226.52
2022-08-22T17:46:44.629Z,100230.84
2022-08-22T17:49:20.035Z,100224.34
2022-08-22T17:52:24.425Z,100227.66
2022-08-22T17:55:24.022Z,100230.85
2022-08-22T17:58:31.870Z,100237.21
2022-08-22T18:01:33.598Z,100246.07
2022-08-22T18:04:25.750Z,100254.88
2022-08-22T18:07:30.524Z,100268.38
2022-08-22T18:10:09.173Z,100267.83
2022-08-22T18:13:04.761Z,100267.56
2022-08-22T18:16:11.702Z,100271.71
2022-08-22T18:19:22.372Z,100257.48
2022-08-22T18:22:38.370Z,100245.23
2022-08-22T18:25:25.535Z,100248.40
2022-08-22T18:28:19.061Z,100263.59
2022-08-22T18:31:14.008Z,100285.21
2022-08-22T18:34:03.267Z,100285.39
2022-08-22T18:36:54.846Z,100281.68
2022-08-22T18:39:50.848Z,100283.48
2022-08-22T18:42:41.897Z,100279.69
2022-08-22T18:45:50.199Z,100270.94
2022-08-22T18:48:33.455Z,100271.30
2022-08-22T18:51:30.617Z,100277.39
2022-08-22T18:54:09.974Z,100281.26
2022-08-22T18:57:11.029Z,100290.41
2022-08-22T19:00:05.557Z,100294.69
2022-08-22T19:03:17.580Z,100290.69
2022-08-22T19:06:07.408Z,100296.92
2022-08-22T19:09:28.563Z,100293.08
2022-08-22T19:12:25.880Z,100290.80
2022-08-22T19:15:12.242Z,100280.23
2022-08-22T19:18:01.237Z,100277.89
2022-08-22T19:20:59.894Z,100287.99
2022-08-22T19:23:42.204Z,100288.46
2022-08-22T19:26:21.641Z,100286.31
2022-08-22T19:29:10.879Z,100290.98
2022-08-22T19:31:45.110Z,100284.51
2022-08-22T19:34:30.507Z,100283.23
2022-08-22T19:37:32.861Z,100283.20
2022-08-22T19:40:12.915Z,100288.89
2022-08-22T19:42:52.535Z,100291.39
2022-08-22T19:45:34.763Z,100296.64
2022-08-22T19:48:14.969Z,100298.31
2022-08-22T19:51:35.624Z,100305.64
2022-08-22T19:54:23.482Z,100311.17
2022-08-22T19:57:16.706Z,100306.02
2022-08-22T20:00:14.938Z,100305.41
2022-08-22T20:03:03.704Z,100307.80
2022-08-22T20:05:57.028Z,100304.25
2022-08-22T20:08:47.657Z,100296.25
2022-08-22T20:11:26.071Z,100288.22
2022-08-22T20:14:30.693Z,100288.88
2022-08-22T20:17:25.509Z,100293.87
2022-08-22T20:20:41.207Z,100294.09
2022-08-22T20:23:28.312Z,100293.11
2022-08-22T20:26:07.807Z,100288.62
2022-08-22T20:28:41.205Z,100288.63
2022-08-22T20:31:29.162Z,100283.64
2022-08-22T20:34:15.679Z,100280.81
2022-08-22T20:37:16.072Z,100273.44
2022-08-22T20:39:59.243Z,100271.86
2022-08-22T20:42:38.117Z,100272.10
2022-08-22T20:45:29.595Z,100265.55
2022-08-22T20:48:14.448Z,100261.27
2022-08-22T20:50:56.059Z,100260.34
2022-08-22T20:53:35.787Z,100252.66
2022-08-22T20:56:12.349Z,100255.69
2022-08-22T20:58:53.157Z,100264.25
2022-08-22T21:01:29.757Z,100274.56
2022-08-22T21:04:10.553Z,100276.48
2022-08-22T21:06:50.375Z,100277.30
2022-08-22T21:09:46.789Z,100277.56
2022-08-22T21:12:26.592Z,100266.98
2022-08-22T21:15:08.484Z,100272.15
2022-08-22T21:17:51.007Z,100275.77
2022-08-22T21:20:36.799Z,100278.01
2022-08-22T21:23:18.396Z,100281.04
2022-08-22T21:25:57.119Z,100284.45
2022-08-22T21:28:38.057Z,100284.50
2022-08-22T21:31:19.583Z,100278.35
2022-08-22T21:33:58.174Z,100274.29
2022-08-22T21:36:39.083Z,100277.48
2022-08-22T21:39:32.637Z,100282.01
2022-08-22T21:42:18.569Z,100286.54
2022-08-22T21:45:05.087Z,100287.65
2022-08-22T21:47:45.904Z,100291.45
2022-08-22T21:50:27.836Z,100292.46
2022-08-22T21:53:12.053Z,100293.05
2022-08-22T21:55:53.952Z,100296.48
2022-08-22T21:58:37.367Z,100293.96
2022-08-22T22:01:29.067Z,100290.77
2022-08-22T22:04:07.197Z,100291.13
2022-08-22T22:06:42.597Z,100291.54
2022-08-22T22:09:25.598Z,100291.73
2022-08-22T22:12:10.240Z,100282.31
2022-08-22T22:14:53.051Z,100274.70
2022-08-22T22:17:31.927Z,100264.60
2022-08-22T22:20:12.385Z,100257.86
2022-08-22T22:22:58.112Z,100259.14
2022-08-22T22:25:42.128Z,100253.23
2022-08-22T22:28:20.540Z,100247.83
2022-08-22T22:31:02.760Z,100246.92
2022-08-22T22:33:42.026Z,100245.14
2022-08-22T22:36:29.987Z,100251.03
2022-08-22T22:39:11.772Z,100256.24
2022-08-22T22:41:51.502Z,100256.48
2022-08-22T22:44:29.980Z,100259.54
2022-08-22T22:47:11.869Z,100255.84
2022-08-22T22:49:52.381Z,100251.20
2022-08-22T22:52:33.940Z,100249.07
2022-08-22T22:55:24.143Z,100244.16
2022-08-22T22:58:03.883Z,100239.47
2022-08-22T23:00:47.356Z,100237.41
2022-08-22T23:03:25.142Z,100240.27
2022-08-22T23:06:05.724Z,100245.34
2022-08-22T23:08:47.000Z,100247.76
2022-08-22T23:11:31.198Z,100257.20
2022-08-22T23:14:13.117Z,100263.09
2022-08-22T23:16:50.623Z,100268.29
2022-08-22T23:19:30.599Z,100271.08
2022-08-22T23:22:11.066Z,100272.23
2022-08-22T23:24:50.985Z,100272.66
2022-08-22T23:27:31.749Z,100271.75
2022-08-22T23:30:14.434Z,100270.63
2022-08-22T23:32:57.951Z,100270.15
2022-08-22T23:35:40.208Z,100272.13
2022-08-22T23:38:21.403Z,100271.95
2022-08-22T23:41:01.351Z,100269.95
2022-08-22T23:43:40.894Z,100275.96
2022-08-22T23:46:21.890Z,100279.95
2022-08-22T23:49:00.355Z,100277.14
2022-08-22T23:51:40.294Z,100278.67
2022-08-22T23:54:20.922Z,100279.71
2022-08-22T23:57:03.782Z,100279.37
2022-08-22T23:59:57.914Z,100281.88
